Time;durP1;ratioP1;P1;durP2;ratioP2;P2;SDS_P1;SDS_P2;PMS_P1;PMS_P2;Temp;Humidity;BMP_temperature;BMP_pressure;BME280_temperature;BME280_humidity;BME280_pressure;Samples;Min_cycle;Max_cycle;Signal;HPM_P1;HPM_P2
2022/01/20 00:02:08;;;;;;;9.18;1.80;;;4.90;99.90;;;;;;5158287;27;20385;-64
2022/01/20 00:04:48;;;;;;;11.80;2.35;;;4.90;99.90;;;;;;5145573;27;20070;-64
2022/01/20 00:07:31;;;;;;;10.27;2.25;;;4.70;99.90;;;;;;5138142;27;20118;-64
2022/01/20 00:26:24;;;;;;;12.57;1.67;;;4.50;99.90;;;;;;5137670;27;20414;-64
2022/01/20 00:28:55;;;;;;;8.30;2.15;;;4.40;99.90;;;;;;5137794;27;20107;-63
2022/01/20 00:33:53;;;;;;;15.23;2.55;;;4.40;99.90;;;;;;5137988;27;20035;-64
2022/01/20 00:39:00;;;;;;;13.40;2.63;;;4.40;99.90;;;;;;5137437;27;20054;-64
2022/01/20 00:41:26;;;;;;;15.38;2.75;;;4.50;99.90;;;;;;5137331;27;20035;-64
2022/01/20 00:43:51;;;;;;;11.73;2.10;;;4.50;99.90;;;;;;5137672;27;20035;-64
2022/01/20 00:46:17;;;;;;;16.10;2.50;;;4.50;99.90;;;;;;5137455;27;20131;-64
2022/01/20 00:48:43;;;;;;;13.02;2.33;;;4.60;99.90;;;;;;5137628;27;20418;-64
2022/01/20 00:51:09;;;;;;;16.67;2.25;;;4.60;99.90;;;;;;5136923;27;20363;-63
2022/01/20 00:53:34;;;;;;;14.45;2.75;;;4.60;99.90;;;;;;5140351;27;20034;-63
2022/01/20 00:56:00;;;;;;;12.07;2.13;;;4.60;99.90;;;;;;5157899;27;20022;-63
2022/01/20 00:58:26;;;;;;;20.75;2.67;;;4.60;99.90;;;;;;5158023;27;20455;-63
2022/01/20 01:00:52;;;;;;;17.95;2.30;;;4.70;99.90;;;;;;5139340;27;20351;-62
2022/01/20 01:03:18;;;;;;;16.52;3.08;;;4.70;99.90;;;;;;5137879;27;20071;-63
2022/01/20 01:06:04;;;;;;;17.00;3.08;;;4.70;99.90;;;;;;5137003;27;20038;-63
2022/01/20 01:08:30;;;;;;;21.98;3.03;;;4.70;99.90;;;;;;5136640;27;20374;-63
2022/01/20 01:10:56;;;;;;;14.40;2.70;;;4.70;99.90;;;;;;5136429;27;20035;-64
2022/01/20 01:13:24;;;;;;;15.23;2.03;;;4.70;99.90;;;;;;5138449;27;20035;-64
2022/01/20 01:15:51;;;;;;;19.90;3.80;;;4.70;99.90;;;;;;5156987;27;20117;-64
2022/01/20 01:23:38;;;;;;;15.93;2.97;;;4.80;99.90;;;;;;5154488;27;20054;-64
2022/01/20 01:26:06;;;;;;;11.32;2.17;;;4.70;99.90;;;;;;5136455;27;20118;-63
2022/01/20 01:28:32;;;;;;;9.82;1.58;;;4.80;99.90;;;;;;5117888;27;20425;-64
2022/01/20 01:33:34;;;;;;;10.55;2.08;;;4.70;99.90;;;;;;5139087;27;20045;-64
2022/01/20 01:36:03;;;;;;;7.57;1.50;;;4.60;99.90;;;;;;5138699;27;20052;-63
2022/01/20 01:38:38;;;;;;;8.35;1.88;;;4.60;99.90;;;;;;5138782;27;20527;-64
2022/01/20 01:41:04;;;;;;;7.95;1.65;;;4.50;99.90;;;;;;5138656;27;20121;-64
2022/01/20 01:43:31;;;;;;;9.05;1.77;;;4.40;99.90;;;;;;5135306;27;20113;-64
2022/01/20 01:46:00;;;;;;;11.52;1.90;;;4.30;99.90;;;;;;5136165;27;20039;-64
2022/01/20 01:48:26;;;;;;;9.27;1.90;;;4.30;99.90;;;;;;5136037;27;20049;-65
2022/01/20 01:50:52;;;;;;;11.15;2.15;;;4.30;99.90;;;;;;5135949;27;20053;-64
2022/01/20 01:53:18;;;;;;;12.70;2.30;;;4.30;99.90;;;;;;5118441;27;20043;-64
2022/01/20 01:55:44;;;;;;;12.40;2.05;;;4.40;99.90;;;;;;5156619;27;20091;-64
2022/01/20 01:58:10;;;;;;;9.18;1.95;;;4.40;99.90;;;;;;5156393;27;20038;-63
2022/01/20 02:00:36;;;;;;;13.75;2.13;;;4.40;99.90;;;;;;5155901;27;20095;-63
2022/01/20 02:03:02;;;;;;;10.70;2.13;;;4.50;99.90;;;;;;5156346;27;20034;-63
2022/01/20 02:05:30;;;;;;;10.40;2.42;;;4.50;99.90;;;;;;5136763;27;20031;-63
2022/01/20 02:08:22;;;;;;;10.23;2.80;;;4.50;99.90;;;;;;5135649;27;20043;-63
2022/01/20 02:18:57;;;;;;;14.98;2.05;;;4.60;99.90;;;;;;5135244;27;20146;-64
2022/01/20 02:21:23;;;;;;;8.07;1.75;;;4.70;99.90;;;;;;5116782;27;20415;-63
2022/01/20 02:23:49;;;;;;;9.27;2.33;;;4.90;99.90;;;;;;5140144;27;20042;-64
2022/01/20 02:26:14;;;;;;;8.52;1.67;;;4.90;99.90;;;;;;5137787;27;20211;-64
2022/01/20 02:28:40;;;;;;;9.13;1.67;;;4.80;99.90;;;;;;5156092;27;20046;-64
2022/01/20 02:31:06;;;;;;;7.63;1.55;;;4.80;99.90;;;;;;5137090;27;20046;-64
2022/01/20 02:33:32;;;;;;;12.27;1.98;;;4.80;99.90;;;;;;5134624;27;20031;-64
2022/01/20 02:36:08;;;;;;;8.50;2.13;;;4.70;99.90;;;;;;5134886;27;20490;-64
2022/01/20 02:38:58;;;;;;;6.95;1.48;;;4.70;99.90;;;;;;5135249;27;20035;-64
2022/01/20 02:46:53;;;;;;;7.28;1.30;;;4.70;99.90;;;;;;5155807;27;20129;-64
2022/01/20 02:49:19;;;;;;;8.00;1.52;;;4.70;99.90;;;;;;5155910;27;20070;-64
2022/01/20 02:51:50;;;;;;;10.40;1.70;;;4.60;99.90;;;;;;5155458;27;20133;-63
2022/01/20 02:54:16;;;;;;;10.10;2.05;;;4.60;99.90;;;;;;5136670;27;20421;-64
2022/01/20 02:56:42;;;;;;;10.30;1.83;;;4.60;99.90;;;;;;5137627;27;20030;-64
2022/01/20 02:59:08;;;;;;;13.85;1.77;;;4.60;99.90;;;;;;5137376;27;20099;-65
2022/01/20 03:01:34;;;;;;;8.00;1.58;;;4.60;99.90;;;;;;5155590;27;20049;-64
2022/01/20 03:04:00;;;;;;;9.38;1.17;;;4.60;99.90;;;;;;5130813;28;20050;-64
2022/01/20 03:06:26;;;;;;;7.15;1.67;;;4.50;99.90;;;;;;5135168;28;20405;-64
2022/01/20 03:08:52;;;;;;;6.47;1.58;;;4.50;99.90;;;;;;5134928;28;20055;-64
2022/01/20 03:11:18;;;;;;;7.13;1.38;;;4.50;99.90;;;;;;5126909;27;20103;-64
2022/01/20 03:13:44;;;;;;;11.27;1.67;;;4.50;99.90;;;;;;5136129;27;20121;-63
2022/01/20 03:16:10;;;;;;;6.82;1.80;;;4.50;99.90;;;;;;5136836;27;20143;-62
2022/01/20 03:18:35;;;;;;;9.50;1.50;;;4.40;99.90;;;;;;5137019;27;20053;-64
2022/01/20 03:21:01;;;;;;;8.93;1.60;;;4.40;99.90;;;;;;5136605;27;20062;-63
2022/01/20 03:23:27;;;;;;;11.82;2.00;;;4.40;99.90;;;;;;5153966;27;20066;-64
2022/01/20 03:25:53;;;;;;;9.95;1.80;;;4.40;99.90;;;;;;5134924;28;20070;-63
2022/01/20 03:28:20;;;;;;;10.98;2.00;;;4.40;99.90;;;;;;5134748;27;20176;-63
2022/01/20 03:30:46;;;;;;;11.00;2.38;;;4.40;99.90;;;;;;5134006;28;20067;-63
2022/01/20 03:33:12;;;;;;;10.05;2.03;;;4.40;99.90;;;;;;5136535;27;20054;-63
2022/01/20 03:35:37;;;;;;;11.38;2.00;;;4.40;99.90;;;;;;5158102;27;20039;-63
2022/01/20 03:38:03;;;;;;;12.70;2.30;;;4.30;99.90;;;;;;5159407;27;20039;-63
2022/01/20 03:40:29;;;;;;;11.57;2.10;;;4.30;99.90;;;;;;5159058;27;20027;-64
2022/01/20 03:42:55;;;;;;;17.35;2.80;;;4.30;99.90;;;;;;5159340;27;20041;-64
2022/01/20 03:45:25;;;;;;;15.65;2.35;;;4.40;99.90;;;;;;5141417;27;20035;-64
2022/01/20 03:47:54;;;;;;;17.75;3.05;;;4.40;99.90;;;;;;5138158;27;20462;-64
2022/01/20 03:53:03;;;;;;;15.68;2.85;;;4.30;99.90;;;;;;5137859;27;20043;-63
2022/01/20 03:55:29;;;;;;;14.70;3.33;;;4.30;99.90;;;;;;5156818;27;20027;-64
2022/01/20 03:57:55;;;;;;;16.05;2.55;;;4.40;99.90;;;;;;5159171;27;20412;-64
2022/01/20 04:00:20;;;;;;;15.50;3.00;;;4.50;99.90;;;;;;5158411;27;20392;-64
2022/01/20 04:02:46;;;;;;;18.10;3.50;;;4.50;99.90;;;;;;5158907;27;20065;-64
2022/01/20 04:05:12;;;;;;;17.58;3.40;;;4.40;99.90;;;;;;5124572;27;20499;-64
2022/01/20 04:07:37;;;;;;;19.83;4.15;;;4.30;99.90;;;;;;5138135;27;20448;-64
2022/01/20 04:10:04;;;;;;;23.33;4.75;;;4.40;99.90;;;;;;5137557;27;20135;-63
2022/01/20 04:12:29;;;;;;;21.58;4.35;;;4.30;99.90;;;;;;5137897;27;20075;-64
2022/01/20 04:14:55;;;;;;;20.98;3.65;;;4.40;99.90;;;;;;5151511;27;20553;-64
2022/01/20 04:17:21;;;;;;;18.60;3.20;;;4.40;99.90;;;;;;5140061;27;20050;-64
2022/01/20 04:19:47;;;;;;;23.40;4.15;;;4.30;99.90;;;;;;5139796;27;20133;-63
2022/01/20 04:22:13;;;;;;;24.25;3.80;;;4.30;99.90;;;;;;5158549;27;20130;-63
2022/01/20 04:24:39;;;;;;;20.75;3.78;;;4.30;99.90;;;;;;5147107;27;20412;-65
2022/01/20 04:27:06;;;;;;;24.15;3.92;;;4.20;99.90;;;;;;5137773;27;20495;-64
2022/01/20 04:29:32;;;;;;;23.38;4.00;;;4.20;99.90;;;;;;5119774;27;20043;-63
2022/01/20 04:31:58;;;;;;;23.98;4.43;;;4.20;99.90;;;;;;5137383;27;20103;-63
2022/01/20 04:34:24;;;;;;;18.90;3.33;;;4.20;99.90;;;;;;5137781;27;20051;-64
2022/01/20 04:36:53;;;;;;;25.88;3.95;;;4.20;99.90;;;;;;5137714;27;20031;-64
2022/01/20 04:39:22;;;;;;;16.63;3.10;;;4.20;99.90;;;;;;5137459;27;20051;-63
2022/01/20 04:41:50;;;;;;;20.40;3.97;;;4.20;99.90;;;;;;5137111;27;20495;-63
2022/01/20 04:44:30;;;;;;;19.52;4.28;;;4.20;99.90;;;;;;5143630;27;20076;-63
2022/01/20 04:47:06;;;;;;;19.02;3.42;;;4.20;99.90;;;;;;5139552;27;20042;-63
2022/01/20 04:57:44;;;;;;;21.10;3.60;;;4.20;99.90;;;;;;5139488;27;20165;-63
2022/01/20 05:00:10;;;;;;;19.75;3.08;;;4.20;99.90;;;;;;5139338;27;20042;-64
2022/01/20 05:02:36;;;;;;;17.98;3.38;;;4.20;99.90;;;;;;5139391;27;20050;-63
2022/01/20 05:05:01;;;;;;;12.30;2.78;;;4.10;99.90;;;;;;5124982;27;20039;-64
2022/01/20 05:07:28;;;;;;;12.63;2.70;;;4.10;99.90;;;;;;5137228;27;20039;-64
2022/01/20 05:09:56;;;;;;;13.23;2.92;;;4.10;99.90;;;;;;5118496;27;20439;-64
2022/01/20 05:12:30;;;;;;;13.18;2.60;;;4.10;99.90;;;;;;5137174;27;20072;-63
2022/01/20 05:14:56;;;;;;;14.88;2.80;;;4.00;99.90;;;;;;5149309;27;20371;-64
2022/01/20 05:17:22;;;;;;;13.75;2.67;;;4.00;99.90;;;;;;5138675;27;20058;-64
2022/01/20 05:19:48;;;;;;;9.23;2.25;;;4.00;99.90;;;;;;5138885;27;20057;-64
2022/01/20 05:22:14;;;;;;;15.63;2.45;;;3.90;99.90;;;;;;5138930;27;20034;-64
2022/01/20 05:24:39;;;;;;;12.45;2.33;;;3.90;99.90;;;;;;5146678;27;20122;-63
2022/01/20 05:27:05;;;;;;;19.55;2.58;;;3.70;99.90;;;;;;5136590;27;20042;-64
2022/01/20 05:29:30;;;;;;;12.77;2.15;;;3.60;99.90;;;;;;5118270;27;20369;-63
2022/01/20 05:31:56;;;;;;;12.88;2.78;;;3.50;99.90;;;;;;5136341;27;20043;-64
2022/01/20 05:34:22;;;;;;;14.63;2.67;;;3.40;99.90;;;;;;5136704;27;20086;-63
2022/01/20 05:36:48;;;;;;;16.55;2.47;;;3.40;99.90;;;;;;5118369;27;20047;-64
2022/01/20 05:39:14;;;;;;;17.40;2.83;;;3.30;99.90;;;;;;5136564;27;20050;-63
2022/01/20 05:41:40;;;;;;;13.13;2.80;;;3.40;99.90;;;;;;5118082;27;20566;-63
2022/01/20 05:44:07;;;;;;;14.23;2.67;;;3.30;99.90;;;;;;5141744;27;20113;-64
2022/01/20 05:46:41;;;;;;;15.55;2.53;;;3.20;99.90;;;;;;5138342;27;20043;-64
2022/01/20 05:49:10;;;;;;;16.92;2.63;;;3.20;99.90;;;;;;5156994;27;20049;-64
2022/01/20 05:51:39;;;;;;;17.00;2.85;;;3.20;99.90;;;;;;5137825;27;20077;-64
2022/01/20 05:54:08;;;;;;;16.58;2.60;;;3.20;99.90;;;;;;5152430;27;20030;-64
2022/01/20 05:56:34;;;;;;;16.13;3.10;;;3.10;99.90;;;;;;5152249;27;20027;-64
2022/01/20 05:59:00;;;;;;;15.80;3.35;;;3.20;99.90;;;;;;5134019;27;20416;-62
2022/01/20 06:01:27;;;;;;;13.85;2.67;;;3.20;99.90;;;;;;5136745;27;20118;-63
2022/01/20 06:03:53;;;;;;;18.60;3.88;;;3.30;99.90;;;;;;5148354;27;20044;-63
2022/01/20 06:06:19;;;;;;;14.85;2.40;;;3.30;99.90;;;;;;5151874;27;20046;-63
2022/01/20 06:08:45;;;;;;;18.75;3.17;;;3.30;99.90;;;;;;5156420;27;20043;-63
2022/01/20 06:11:10;;;;;;;14.13;2.97;;;3.30;99.90;;;;;;5156005;27;20027;-63
2022/01/20 06:13:36;;;;;;;17.27;2.83;;;3.30;99.90;;;;;;5136167;27;20516;-64
2022/01/20 06:16:03;;;;;;;15.98;3.75;;;3.30;99.90;;;;;;5152140;27;20050;-63
2022/01/20 06:18:29;;;;;;;20.45;3.30;;;3.20;99.90;;;;;;5156564;27;20053;-63
2022/01/20 06:20:55;;;;;;;15.98;3.00;;;3.20;99.90;;;;;;5133545;27;20031;-63
2022/01/20 06:23:22;;;;;;;19.75;3.67;;;3.20;99.90;;;;;;5150558;27;20038;-63
2022/01/20 06:25:48;;;;;;;16.27;2.78;;;3.10;99.90;;;;;;5124459;27;20042;-63
2022/01/20 06:28:14;;;;;;;12.52;2.72;;;3.10;99.90;;;;;;5156081;27;20046;-64
2022/01/20 06:30:40;;;;;;;14.15;2.65;;;3.10;99.90;;;;;;5137049;27;20039;-62
2022/01/20 06:33:07;;;;;;;12.93;2.67;;;3.00;99.90;;;;;;5153067;27;20087;-64
2022/01/20 06:35:32;;;;;;;17.00;2.88;;;3.00;99.90;;;;;;5137870;27;20364;-62
2022/01/20 06:37:58;;;;;;;11.55;2.58;;;3.00;99.90;;;;;;5135154;27;20031;-62
2022/01/20 06:40:24;;;;;;;12.10;2.55;;;3.00;99.90;;;;;;5134907;27;20110;-63
2022/01/20 06:42:50;;;;;;;13.10;2.20;;;3.00;99.90;;;;;;5154409;27;20557;-63
2022/01/20 06:45:17;;;;;;;12.25;2.50;;;3.10;99.90;;;;;;5154935;27;20042;-64
2022/01/20 06:47:43;;;;;;;14.02;2.33;;;3.00;99.90;;;;;;5155815;27;20039;-63
2022/01/20 06:50:10;;;;;;;9.65;2.10;;;3.00;99.90;;;;;;5137473;27;20053;-63
2022/01/20 06:52:38;;;;;;;13.23;1.90;;;2.90;99.90;;;;;;5137798;27;20050;-64
2022/01/20 06:55:05;;;;;;;7.35;1.98;;;2.90;99.90;;;;;;5154487;27;20047;-66
2022/01/20 06:57:34;;;;;;;11.82;1.98;;;2.90;99.90;;;;;;5155951;27;20030;-66
2022/01/20 07:00:01;;;;;;;14.23;2.22;;;2.80;99.90;;;;;;5136516;27;20455;-63
2022/01/20 07:02:26;;;;;;;12.45;2.60;;;2.80;99.90;;;;;;5149950;27;20102;-63
2022/01/20 07:04:52;;;;;;;10.13;2.30;;;2.80;99.90;;;;;;5144839;27;20403;-65
2022/01/20 07:07:18;;;;;;;11.32;2.20;;;2.80;99.90;;;;;;5135862;27;20119;-66
2022/01/20 07:09:45;;;;;;;10.20;2.03;;;2.80;99.90;;;;;;5140483;27;20084;-64
2022/01/20 07:12:11;;;;;;;8.90;2.28;;;2.80;99.90;;;;;;5158235;27;20095;-64
2022/01/20 07:14:38;;;;;;;11.35;2.38;;;2.70;99.90;;;;;;5112779;27;20039;-64
2022/01/20 07:17:05;;;;;;;12.13;3.10;;;2.60;99.90;;;;;;5118609;27;20062;-65
2022/01/20 07:19:31;;;;;;;11.52;2.00;;;2.50;99.90;;;;;;5118531;27;20035;-64
2022/01/20 07:21:56;;;;;;;13.60;2.35;;;2.50;99.90;;;;;;5118960;27;20042;-64
2022/01/20 07:24:22;;;;;;;12.13;2.15;;;2.40;99.90;;;;;;5127491;27;20046;-65
2022/01/20 07:26:49;;;;;;;9.55;2.00;;;2.40;99.90;;;;;;5141297;27;20061;-65
2022/01/20 07:29:15;;;;;;;11.25;1.90;;;2.30;99.90;;;;;;5149718;27;20092;-65
2022/01/20 07:31:41;;;;;;;7.57;1.90;;;2.30;99.90;;;;;;5144874;27;20085;-63
2022/01/20 07:34:07;;;;;;;8.77;2.00;;;2.20;99.90;;;;;;5131664;27;20056;-63
2022/01/20 07:36:32;;;;;;;8.45;2.08;;;2.20;99.90;;;;;;5139727;27;20175;-63
2022/01/20 07:38:58;;;;;;;13.82;2.15;;;2.20;99.90;;;;;;5140507;27;20465;-62
2022/01/20 07:41:24;;;;;;;11.88;2.63;;;2.20;99.90;;;;;;5159296;27;20077;-64
2022/01/20 07:43:49;;;;;;;16.92;2.88;;;2.30;99.90;;;;;;5156426;27;20057;-64
2022/01/20 07:46:15;;;;;;;14.07;3.92;;;2.30;99.90;;;;;;5150622;27;20366;-65
2022/01/20 07:48:42;;;;;;;19.90;3.00;;;2.30;99.90;;;;;;5157973;27;20046;-64
2022/01/20 07:51:08;;;;;;;15.93;3.03;;;2.40;99.90;;;;;;5120032;27;20068;-64
2022/01/20 07:53:35;;;;;;;12.45;3.22;;;2.40;99.90;;;;;;5122610;27;20077;-63
2022/01/20 07:56:02;;;;;;;18.02;2.90;;;2.40;99.90;;;;;;5127805;27;20043;-63
2022/01/20 07:58:27;;;;;;;14.00;2.78;;;2.40;99.90;;;;;;5153772;27;20039;-65
2022/01/20 08:00:53;;;;;;;15.00;2.90;;;2.40;99.90;;;;;;5158129;27;20053;-66
2022/01/20 08:03:20;;;;;;;15.05;2.75;;;2.40;99.90;;;;;;5158467;27;20118;-64
2022/01/20 08:05:45;;;;;;;15.38;2.92;;;2.40;99.90;;;;;;5139453;27;20035;-65
2022/01/20 08:08:11;;;;;;;16.58;3.20;;;2.40;99.90;;;;;;5119249;27;20058;-64
2022/01/20 08:10:37;;;;;;;17.13;3.03;;;2.30;99.90;;;;;;5137147;27;20039;-66
2022/01/20 08:13:03;;;;;;;16.83;2.90;;;2.30;99.90;;;;;;5137712;27;20264;-65
2022/01/20 08:15:29;;;;;;;15.65;3.25;;;2.20;99.90;;;;;;5135492;27;20074;-65
2022/01/20 08:17:55;;;;;;;16.00;3.22;;;2.20;99.90;;;;;;5157454;27;20085;-65
2022/01/20 08:20:21;;;;;;;18.95;3.08;;;2.30;99.90;;;;;;5157659;27;20043;-66
2022/01/20 08:22:47;;;;;;;19.10;3.35;;;2.40;99.90;;;;;;5157843;27;20082;-65
2022/01/20 08:25:15;;;;;;;20.85;3.47;;;2.40;99.90;;;;;;5156984;27;20239;-64
2022/01/20 08:27:43;;;;;;;19.92;4.32;;;2.50;99.90;;;;;;5157888;27;20462;-63
2022/01/20 08:30:15;;;;;;;20.73;3.63;;;2.50;99.90;;;;;;5157498;27;20035;-65
2022/01/20 08:32:41;;;;;;;17.45;3.03;;;2.60;99.90;;;;;;5157559;27;20420;-65
2022/01/20 08:35:09;;;;;;;15.13;3.35;;;2.60;99.90;;;;;;5144429;27;20031;-65
2022/01/20 08:37:37;;;;;;;17.50;3.58;;;2.60;99.90;;;;;;5137870;27;20078;-68
2022/01/20 08:40:05;;;;;;;17.48;4.25;;;2.60;99.90;;;;;;5121685;27;20099;-65
2022/01/20 08:42:31;;;;;;;14.20;3.28;;;2.60;99.90;;;;;;5137192;27;20078;-66
2022/01/20 08:44:57;;;;;;;13.55;3.30;;;2.60;99.90;;;;;;5130165;27;20046;-65
2022/01/20 08:47:23;;;;;;;16.58;3.13;;;2.60;99.90;;;;;;5157806;27;20054;-66
2022/01/20 08:49:50;;;;;;;15.05;3.28;;;2.70;99.90;;;;;;5157543;27;20042;-65
2022/01/20 08:52:17;;;;;;;16.42;3.58;;;2.70;99.90;;;;;;5139333;27;20070;-64
2022/01/20 08:54:47;;;;;;;27.92;4.78;;;2.70;99.90;;;;;;5147682;27;20134;-64
2022/01/20 08:57:14;;;;;;;20.48;4.38;;;2.80;99.90;;;;;;5118704;27;20473;-63
2022/01/20 08:59:42;;;;;;;18.17;4.68;;;2.90;99.90;;;;;;5135968;27;20031;-66
2022/01/20 09:02:08;;;;;;;21.95;4.80;;;3.00;99.90;;;;;;5121580;27;20042;-65
2022/01/20 09:04:34;;;;;;;19.70;4.40;;;3.00;99.90;;;;;;5149066;27;20047;-65
2022/01/20 09:07:00;;;;;;;15.07;3.08;;;3.10;99.90;;;;;;5136614;27;20042;-64
2022/01/20 09:09:25;;;;;;;9.77;2.72;;;3.20;99.90;;;;;;5136186;27;20042;-65
2022/01/20 09:12:04;;;;;;;13.68;2.90;;;3.40;99.90;;;;;;5136498;27;20035;-65
2022/01/20 09:17:14;;;;;;;14.10;2.97;;;3.50;99.90;;;;;;5156695;27;20503;-64
2022/01/20 09:19:40;;;;;;;19.58;3.13;;;3.60;99.90;;;;;;5156652;27;20039;-65
2022/01/20 09:22:06;;;;;;;12.75;3.30;;;3.70;99.90;;;;;;5156818;27;20042;-63
2022/01/20 09:24:31;;;;;;;10.88;2.60;;;3.70;99.90;;;;;;5130910;27;20386;-65
2022/01/20 09:26:57;;;;;;;16.10;3.13;;;3.80;99.90;;;;;;5117982;27;20047;-65
2022/01/20 09:29:23;;;;;;;16.00;2.85;;;3.80;99.90;;;;;;5100566;27;20055;-66
2022/01/20 09:31:50;;;;;;;11.85;2.83;;;3.90;99.90;;;;;;5135472;27;20059;-66
2022/01/20 09:34:16;;;;;;;14.85;2.47;;;4.00;99.90;;;;;;5141229;27;20050;-64
2022/01/20 09:36:44;;;;;;;17.80;2.60;;;4.00;99.90;;;;;;5133227;27;20038;-64
2022/01/20 09:39:11;;;;;;;13.32;3.00;;;4.10;99.90;;;;;;5135901;27;20058;-65
2022/01/20 09:41:36;;;;;;;12.32;2.60;;;4.20;99.90;;;;;;5136256;27;20035;-65
2022/01/20 09:44:05;;;;;;;8.32;2.13;;;4.10;99.90;;;;;;5136270;27;20035;-65
2022/01/20 09:46:31;;;;;;;13.45;2.10;;;3.70;99.90;;;;;;5135825;27;20088;-64
2022/01/20 09:48:57;;;;;;;15.13;3.17;;;3.60;99.90;;;;;;5135486;27;20043;-65
2022/01/20 09:51:23;;;;;;;14.32;2.83;;;3.50;99.90;;;;;;5135838;27;20144;-65
2022/01/20 09:53:48;;;;;;;16.00;3.78;;;3.30;99.90;;;;;;5117914;27;20048;-64
2022/01/20 09:56:14;;;;;;;18.13;2.95;;;3.40;99.90;;;;;;5135340;27;20046;-66
2022/01/20 09:58:40;;;;;;;19.67;3.30;;;3.40;99.90;;;;;;5135233;27;20356;-66
2022/01/20 10:01:05;;;;;;;12.80;2.83;;;3.40;99.90;;;;;;5135125;27;20041;-66
2022/01/20 10:03:35;;;;;;;14.10;2.75;;;3.50;99.90;;;;;;5135860;27;20035;-66
2022/01/20 10:06:01;;;;;;;14.13;2.97;;;3.60;99.90;;;;;;5155002;27;20042;-65
2022/01/20 10:08:28;;;;;;;11.35;2.55;;;3.80;99.90;;;;;;5137304;27;20050;-65
2022/01/20 10:10:55;;;;;;;18.08;3.10;;;3.80;99.90;;;;;;5137849;27;20387;-66
2022/01/20 10:13:27;;;;;;;12.68;3.08;;;3.80;99.90;;;;;;5137576;27;20069;-66
2022/01/20 10:16:08;;;;;;;17.38;2.97;;;3.90;99.90;;;;;;5136478;27;20110;-66
2022/01/20 10:18:48;;;;;;;16.70;4.20;;;4.00;99.90;;;;;;5137188;27;20058;-66
2022/01/20 10:21:15;;;;;;;14.07;2.70;;;4.00;99.90;;;;;;5136977;27;20058;-66
2022/01/20 10:23:44;;;;;;;15.00;2.58;;;4.00;99.90;;;;;;5155249;27;20347;-65
2022/01/20 10:26:17;;;;;;;15.77;2.97;;;4.00;99.90;;;;;;5155909;27;20094;-66
2022/01/20 10:28:47;;;;;;;15.48;3.08;;;4.10;99.90;;;;;;5137370;27;20061;-63
2022/01/20 10:31:15;;;;;;;12.73;2.38;;;4.20;99.90;;;;;;5155629;27;20051;-65
2022/01/20 10:33:42;;;;;;;14.85;3.05;;;4.20;99.90;;;;;;5155199;27;20078;-65
2022/01/20 10:36:09;;;;;;;18.20;2.17;;;4.30;99.90;;;;;;5155493;27;20062;-65
2022/01/20 10:38:34;;;;;;;15.73;2.65;;;4.30;99.90;;;;;;5133921;27;20035;-65
2022/01/20 10:41:02;;;;;;;16.23;3.13;;;4.30;99.90;;;;;;5134005;27;20456;-66
2022/01/20 10:43:29;;;;;;;19.00;3.45;;;4.20;99.90;;;;;;5134827;27;20043;-64
2022/01/20 10:46:21;;;;;;;14.68;3.50;;;4.20;99.90;;;;;;5136416;27;20054;-67
2022/01/20 10:49:00;;;;;;;14.88;3.08;;;4.30;99.90;;;;;;5151056;27;20541;-66
2022/01/20 10:51:26;;;;;;;12.65;3.30;;;4.30;99.90;;;;;;5155802;27;20043;-67
2022/01/20 10:54:05;;;;;;;20.25;3.78;;;4.40;99.90;;;;;;5153925;27;20371;-65
2022/01/20 10:56:57;;;;;;;16.02;3.90;;;4.40;99.90;;;;;;5134475;27;20045;-65
2022/01/20 10:59:24;;;;;;;25.90;6.00;;;4.40;99.90;;;;;;5116462;28;20039;-66
2022/01/20 11:02:05;;;;;;;16.65;4.15;;;4.40;99.90;;;;;;5153283;27;20035;-67
2022/01/20 11:04:31;;;;;;;20.85;4.28;;;4.40;99.90;;;;;;5132881;27;20038;-63
2022/01/20 11:07:01;;;;;;;17.55;4.15;;;4.30;99.90;;;;;;5119681;27;20061;-65
2022/01/20 11:09:28;;;;;;;15.77;3.72;;;4.40;99.90;;;;;;5136769;27;20039;-65
2022/01/20 11:11:55;;;;;;;15.93;2.97;;;4.50;99.90;;;;;;5155321;27;20057;-65
2022/01/20 11:14:21;;;;;;;18.05;3.83;;;4.60;99.90;;;;;;5154505;27;20053;-65
2022/01/20 11:16:48;;;;;;;11.23;3.03;;;4.70;99.90;;;;;;5154733;27;20054;-64
2022/01/20 11:19:21;;;;;;;16.00;3.28;;;4.60;99.90;;;;;;5136358;27;20062;-65
2022/01/20 11:21:50;;;;;;;15.65;3.45;;;4.60;99.90;;;;;;5155344;27;20041;-65
2022/01/20 11:24:18;;;;;;;13.43;2.78;;;4.70;99.90;;;;;;5150607;27;20043;-64
2022/01/20 11:26:58;;;;;;;13.00;3.25;;;4.80;99.90;;;;;;5116118;28;20059;-65
2022/01/20 11:29:42;;;;;;;15.85;2.92;;;5.00;99.90;;;;;;5116383;28;20035;-65
2022/01/20 11:32:18;;;;;;;17.55;3.03;;;5.10;99.90;;;;;;5134314;28;20075;-65
2022/01/20 11:35:19;;;;;;;14.50;2.80;;;5.00;99.90;;;;;;5124129;27;20481;-65
2022/01/20 11:37:58;;;;;;;15.98;2.70;;;4.80;99.90;;;;;;5078383;28;20043;-64
2022/01/20 11:40:26;;;;;;;12.25;2.85;;;4.70;99.90;;;;;;5133039;28;20329;-64
2022/01/20 11:43:06;;;;;;;16.60;3.17;;;4.60;99.90;;;;;;5116215;28;20126;-64
2022/01/20 11:45:36;;;;;;;18.17;4.30;;;4.60;99.90;;;;;;5118512;27;20111;-65
2022/01/20 11:48:22;;;;;;;17.25;3.05;;;4.60;99.90;;;;;;5119603;27;20074;-65
2022/01/20 11:51:03;;;;;;;14.68;2.35;;;4.50;99.90;;;;;;5154959;27;20045;-65
2022/01/20 11:53:29;;;;;;;14.00;3.08;;;4.40;99.90;;;;;;5137567;27;20046;-65
2022/01/20 11:55:55;;;;;;;18.45;3.55;;;4.10;99.90;;;;;;5133655;27;20091;-65
2022/01/20 11:58:24;;;;;;;16.25;3.78;;;4.00;99.90;;;;;;5158210;27;20467;-65
2022/01/20 12:00:58;;;;;;;11.98;2.95;;;3.90;99.90;;;;;;5139908;27;20035;-64
2022/01/20 12:03:24;;;;;;;18.50;4.18;;;3.90;99.90;;;;;;5140592;27;20043;-66
2022/01/20 12:06:01;;;;;;;18.63;3.15;;;4.00;99.90;;;;;;5141155;27;20035;-65
2022/01/20 12:08:26;;;;;;;16.17;3.72;;;4.10;99.90;;;;;;5137638;27;20072;-65
2022/01/20 12:11:01;;;;;;;18.35;4.05;;;4.40;99.90;;;;;;5119831;27;20459;-65
2022/01/20 12:13:28;;;;;;;19.20;3.42;;;4.40;99.90;;;;;;5137544;27;20456;-65
2022/01/20 12:16:00;;;;;;;11.50;2.63;;;4.40;99.90;;;;;;5138251;27;20086;-67
2022/01/20 12:18:26;;;;;;;16.20;3.17;;;4.40;99.90;;;;;;5137426;27;20047;-66
2022/01/20 12:20:52;;;;;;;15.52;3.10;;;4.40;99.90;;;;;;5119220;27;20039;-66
2022/01/20 12:23:19;;;;;;;13.75;3.00;;;4.40;99.90;;;;;;5137485;27;20038;-65
2022/01/20 12:25:45;;;;;;;11.30;2.80;;;4.40;99.90;;;;;;5118574;27;20503;-66
2022/01/20 12:28:13;;;;;;;11.73;2.50;;;4.40;99.90;;;;;;5157987;27;20121;-66
2022/01/20 12:30:47;;;;;;;15.32;2.70;;;4.50;99.90;;;;;;5157673;27;20042;-66
2022/01/20 12:33:15;;;;;;;13.50;2.60;;;4.50;99.90;;;;;;5157894;27;20042;-64
2022/01/20 12:35:45;;;;;;;12.80;2.80;;;4.60;99.90;;;;;;5124046;27;20423;-65
2022/01/20 12:38:15;;;;;;;15.50;3.13;;;4.70;99.90;;;;;;5135985;27;20034;-65
2022/01/20 12:40:41;;;;;;;10.40;2.40;;;4.60;99.90;;;;;;5157751;27;20037;-67
2022/01/20 12:43:06;;;;;;;16.83;3.00;;;4.60;99.90;;;;;;5139230;27;20038;-65
2022/01/20 12:48:18;;;;;;;18.60;2.80;;;4.70;99.90;;;;;;5157440;27;20038;-65
2022/01/20 12:50:55;;;;;;;9.50;2.80;;;4.70;99.90;;;;;;5139803;27;20047;-66
2022/01/20 12:53:41;;;;;;;11.88;2.72;;;4.70;99.90;;;;;;5157498;27;20466;-65
2022/01/20 12:56:10;;;;;;;18.30;3.25;;;4.70;99.90;;;;;;5138052;27;20428;-65
2022/01/20 12:58:45;;;;;;;8.68;2.88;;;4.70;99.90;;;;;;5118263;27;20371;-66
2022/01/20 13:01:10;;;;;;;14.90;3.88;;;4.70;99.90;;;;;;5136446;27;20031;-66
2022/01/20 13:03:38;;;;;;;13.13;3.00;;;4.70;99.90;;;;;;5101865;27;20035;-65
2022/01/20 13:06:11;;;;;;;13.95;3.40;;;4.70;99.90;;;;;;5153801;27;20035;-65
2022/01/20 13:08:40;;;;;;;9.18;2.40;;;4.70;99.90;;;;;;5140427;27;20197;-65
2022/01/20 13:11:11;;;;;;;12.45;2.85;;;4.70;99.90;;;;;;5136961;27;20050;-66
2022/01/20 13:13:36;;;;;;;16.88;3.80;;;4.70;99.90;;;;;;5143006;27;20383;-65
2022/01/20 13:16:13;;;;;;;16.77;3.72;;;4.70;99.90;;;;;;5137391;27;20031;-65
2022/01/20 13:18:38;;;;;;;15.05;3.35;;;4.60;99.90;;;;;;5134542;27;20047;-67
2022/01/20 13:21:07;;;;;;;22.00;9.32;;;4.40;99.90;;;;;;5151482;27;20046;-67
2022/01/20 13:23:55;;;;;;;56.33;24.15;;;4.20;99.90;;;;;;5156626;27;20522;-66
2022/01/20 13:26:21;;;;;;;14.98;5.75;;;3.90;99.90;;;;;;5118069;27;20039;-66
2022/01/20 13:29:02;;;;;;;8.60;1.92;;;3.90;99.90;;;;;;5135831;27;20061;-66
2022/01/20 13:31:28;;;;;;;6.78;2.10;;;3.70;99.90;;;;;;5136005;27;20087;-65
2022/01/20 13:33:54;;;;;;;10.23;2.25;;;3.70;99.90;;;;;;5136197;27;20365;-65
2022/01/20 13:36:22;;;;;;;8.98;2.40;;;3.70;99.90;;;;;;5154809;27;20118;-64
2022/01/20 13:38:57;;;;;;;10.07;2.25;;;3.70;99.90;;;;;;5135411;27;20096;-65
2022/01/20 13:41:28;;;;;;;11.18;2.97;;;3.70;99.90;;;;;;5135873;27;20046;-65
2022/01/20 13:46:48;;;;;;;9.50;2.20;;;3.90;99.90;;;;;;5130746;27;20054;-66
2022/01/20 13:49:22;;;;;;;11.57;2.75;;;3.90;99.90;;;;;;5137099;27;20074;-65
2022/01/20 13:52:01;;;;;;;13.77;3.03;;;3.90;99.90;;;;;;5137736;27;20398;-65
2022/01/20 13:54:42;;;;;;;9.55;2.00;;;3.90;99.90;;;;;;5136740;27;20103;-65
2022/01/20 13:57:08;;;;;;;8.77;2.75;;;3.90;99.90;;;;;;5156270;27;20031;-66